sensor_id;sensor_type;location;lat;lon;timestamp;P1;durP1;ratioP1;P2;durP2;ratioP2
21771;SDS011;11047;47.904;8.110;2022-08-21T00:01:22;16.42;;;2.42;;
21771;SDS011;11047;47.904;8.110;2022-08-21T00:03:51;16.38;;;2.55;;
21771;SDS011;11047;47.904;8.110;2022-08-21T00:06:18;16.55;;;2.33;;
21771;SDS011;11047;47.904;8.110;2022-08-21T00:08:46;43.42;;;3.15;;
21771;SDS011;11047;47.904;8.110;2022-08-21T00:11:13;30.83;;;2.70;;
21771;SDS011;11047;47.904;8.110;2022-08-21T00:13:40;63.85;;;3.13;;
21771;SDS011;11047;47.904;8.110;2022-08-21T00:16:07;96.82;;;3.63;;
21771;SDS011;11047;47.904;8.110;2022-08-21T00:18:35;107.22;;;3.75;;
21771;SDS011;11047;47.904;8.110;2022-08-21T00:21:02;21.90;;;2.55;;
21771;SDS011;11047;47.904;8.110;2022-08-21T00:23:29;119.07;;;4.03;;
21771;SDS011;11047;47.904;8.110;2022-08-21T00:25:58;102.28;;;3.50;;
21771;SDS011;11047;47.904;8.110;2022-08-21T00:28:24;144.73;;;4.20;;
21771;SDS011;11047;47.904;8.110;2022-08-21T00:30:51;93.97;;;3.67;;
21771;SDS011;11047;47.904;8.110;2022-08-21T00:33:18;131.95;;;3.47;;
21771;SDS011;11047;47.904;8.110;2022-08-21T00:35:45;85.72;;;2.90;;
21771;SDS011;11047;47.904;8.110;2022-08-21T00:38:12;36.15;;;2.25;;
21771;SDS011;11047;47.904;8.110;2022-08-21T00:40:41;29.38;;;2.45;;
21771;SDS011;11047;47.904;8.110;2022-08-21T00:43:11;38.42;;;2.58;;
21771;SDS011;11047;47.904;8.110;2022-08-21T00:45:39;31.63;;;2.50;;
21771;SDS011;11047;47.904;8.110;2022-08-21T00:48:06;6.47;;;1.85;;
21771;SDS011;11047;47.904;8.110;2022-08-21T00:50:34;12.90;;;1.52;;
21771;SDS011;11047;47.904;8.110;2022-08-21T00:53:07;7.60;;;1.67;;
21771;SDS011;11047;47.904;8.110;2022-08-21T00:55:37;2.15;;;1.55;;
21771;SDS011;11047;47.904;8.110;2022-08-21T00:58:05;13.13;;;1.60;;
21771;SDS011;11047;47.904;8.110;2022-08-21T01:00:37;28.58;;;1.63;;
21771;SDS011;11047;47.904;8.110;2022-08-21T01:03:07;31.17;;;1.95;;
21771;SDS011;11047;47.904;8.110;2022-08-21T01:05:36;14.23;;;1.70;;
21771;SDS011;11047;47.904;8.110;2022-08-21T01:08:04;12.77;;;1.75;;
21771;SDS011;11047;47.904;8.110;2022-08-21T01:10:32;2.08;;;1.90;;
21771;SDS011;11047;47.904;8.110;2022-08-21T01:13:00;18.48;;;1.80;;
21771;SDS011;11047;47.904;8.110;2022-08-21T01:15:30;16.77;;;1.75;;
21771;SDS011;11047;47.904;8.110;2022-08-21T01:18:01;9.77;;;1.60;;
21771;SDS011;11047;47.904;8.110;2022-08-21T01:20:29;20.48;;;1.60;;
21771;SDS011;11047;47.904;8.110;2022-08-21T01:22:58;25.70;;;1.83;;
21771;SDS011;11047;47.904;8.110;2022-08-21T01:25:25;18.42;;;1.60;;
21771;SDS011;11047;47.904;8.110;2022-08-21T01:27:51;7.70;;;1.15;;
21771;SDS011;11047;47.904;8.110;2022-08-21T01:30:19;9.93;;;1.42;;
21771;SDS011;11047;47.904;8.110;2022-08-21T01:32:49;18.15;;;1.50;;
21771;SDS011;11047;47.904;8.110;2022-08-21T01:35:17;20.35;;;1.58;;
21771;SDS011;11047;47.904;8.110;2022-08-21T01:37:46;41.83;;;2.30;;
21771;SDS011;11047;47.904;8.110;2022-08-21T01:40:15;81.88;;;2.58;;
21771;SDS011;11047;47.904;8.110;2022-08-21T01:42:43;28.15;;;1.95;;
21771;SDS011;11047;47.904;8.110;2022-08-21T01:45:11;20.08;;;1.80;;
21771;SDS011;11047;47.904;8.110;2022-08-21T01:47:38;4.20;;;1.40;;
21771;SDS011;11047;47.904;8.110;2022-08-21T01:50:06;1.38;;;1.20;;
21771;SDS011;11047;47.904;8.110;2022-08-21T01:52:35;3.15;;;1.50;;
21771;SDS011;11047;47.904;8.110;2022-08-21T01:55:02;2.85;;;1.20;;
21771;SDS011;11047;47.904;8.110;2022-08-21T01:57:31;8.60;;;1.33;;
21771;SDS011;11047;47.904;8.110;2022-08-21T01:59:59;13.55;;;1.50;;
21771;SDS011;11047;47.904;8.110;2022-08-21T02:02:26;33.13;;;1.83;;
21771;SDS011;11047;47.904;8.110;2022-08-21T02:04:53;6.07;;;1.65;;
21771;SDS011;11047;47.904;8.110;2022-08-21T02:07:20;0.98;;;0.98;;
21771;SDS011;11047;47.904;8.110;2022-08-21T02:09:47;2.35;;;1.30;;
21771;SDS011;11047;47.904;8.110;2022-08-21T02:12:14;1.30;;;1.20;;
21771;SDS011;11047;47.904;8.110;2022-08-21T02:14:42;2.25;;;1.15;;
21771;SDS011;11047;47.904;8.110;2022-08-21T02:17:09;3.05;;;1.48;;
21771;SDS011;11047;47.904;8.110;2022-08-21T02:19:36;7.90;;;1.70;;
21771;SDS011;11047;47.904;8.110;2022-08-21T02:22:03;6.75;;;1.77;;
21771;SDS011;11047;47.904;8.110;2022-08-21T02:24:30;2.88;;;1.58;;
21771;SDS011;11047;47.904;8.110;2022-08-21T02:26:57;1.67;;;1.50;;
21771;SDS011;11047;47.904;8.110;2022-08-21T02:29:24;1.10;;;1.10;;
21771;SDS011;11047;47.904;8.110;2022-08-21T02:31:52;1.73;;;1.35;;
21771;SDS011;11047;47.904;8.110;2022-08-21T02:34:19;1.17;;;1.13;;
21771;SDS011;11047;47.904;8.110;2022-08-21T02:36:46;1.27;;;1.17;;
21771;SDS011;11047;47.904;8.110;2022-08-21T02:39:13;1.23;;;1.20;;
21771;SDS011;11047;47.904;8.110;2022-08-21T02:41:40;3.45;;;1.10;;
21771;SDS011;11047;47.904;8.110;2022-08-21T02:44:06;1.45;;;1.10;;
21771;SDS011;11047;47.904;8.110;2022-08-21T02:46:33;1.30;;;1.20;;
21771;SDS011;11047;47.904;8.110;2022-08-21T02:49:02;2.33;;;1.00;;
21771;SDS011;11047;47.904;8.110;2022-08-21T02:51:28;1.42;;;1.10;;
21771;SDS011;11047;47.904;8.110;2022-08-21T02:53:56;1.75;;;1.10;;
21771;SDS011;11047;47.904;8.110;2022-08-21T02:56:23;1.30;;;1.10;;
21771;SDS011;11047;47.904;8.110;2022-08-21T02:58:50;1.13;;;1.02;;
21771;SDS011;11047;47.904;8.110;2022-08-21T03:01:18;0.95;;;0.95;;
21771;SDS011;11047;47.904;8.110;2022-08-21T03:03:46;3.30;;;1.10;;
21771;SDS011;11047;47.904;8.110;2022-08-21T03:06:17;2.25;;;1.10;;
21771;SDS011;11047;47.904;8.110;2022-08-21T03:08:46;1.35;;;1.25;;
21771;SDS011;11047;47.904;8.110;2022-08-21T03:11:13;1.42;;;1.33;;
21771;SDS011;11047;47.904;8.110;2022-08-21T03:13:41;1.55;;;1.45;;
21771;SDS011;11047;47.904;8.110;2022-08-21T03:16:08;1.23;;;1.13;;
21771;SDS011;11047;47.904;8.110;2022-08-21T03:18:35;3.35;;;1.30;;
21771;SDS011;11047;47.904;8.110;2022-08-21T03:21:03;1.50;;;1.40;;
21771;SDS011;11047;47.904;8.110;2022-08-21T03:23:32;1.50;;;1.40;;
21771;SDS011;11047;47.904;8.110;2022-08-21T03:25:59;1.75;;;1.20;;
21771;SDS011;11047;47.904;8.110;2022-08-21T03:28:26;2.42;;;1.30;;
21771;SDS011;11047;47.904;8.110;2022-08-21T03:30:53;1.58;;;1.20;;
21771;SDS011;11047;47.904;8.110;2022-08-21T03:33:20;1.67;;;1.20;;
21771;SDS011;11047;47.904;8.110;2022-08-21T03:35:49;1.30;;;1.20;;
21771;SDS011;11047;47.904;8.110;2022-08-21T03:38:23;4.90;;;1.20;;
21771;SDS011;11047;47.904;8.110;2022-08-21T03:40:51;1.88;;;1.30;;
21771;SDS011;11047;47.904;8.110;2022-08-21T03:43:18;1.30;;;1.20;;
21771;SDS011;11047;47.904;8.110;2022-08-21T03:45:45;8.32;;;1.35;;
21771;SDS011;11047;47.904;8.110;2022-08-21T03:48:12;25.33;;;1.40;;
21771;SDS011;11047;47.904;8.110;2022-08-21T03:50:40;1.40;;;1.30;;
21771;SDS011;11047;47.904;8.110;2022-08-21T03:53:10;2.58;;;1.20;;
21771;SDS011;11047;47.904;8.110;2022-08-21T03:55:38;9.25;;;1.55;;
21771;SDS011;11047;47.904;8.110;2022-08-21T03:58:07;21.25;;;1.70;;
21771;SDS011;11047;47.904;8.110;2022-08-21T04:00:34;15.15;;;1.50;;
21771;SDS011;11047;47.904;8.110;2022-08-21T04:03:02;20.73;;;1.58;;
21771;SDS011;11047;47.904;8.110;2022-08-21T04:05:29;17.83;;;1.50;;
21771;SDS011;11047;47.904;8.110;2022-08-21T04:07:58;1.00;;;1.00;;
21771;SDS011;11047;47.904;8.110;2022-08-21T04:10:26;4.82;;;1.25;;
21771;SDS011;11047;47.904;8.110;2022-08-21T04:12:55;1.45;;;1.05;;
21771;SDS011;11047;47.904;8.110;2022-08-21T04:15:24;4.57;;;1.27;;
21771;SDS011;11047;47.904;8.110;2022-08-21T04:17:52;24.20;;;1.60;;
21771;SDS011;11047;47.904;8.110;2022-08-21T04:20:20;32.55;;;1.80;;
21771;SDS011;11047;47.904;8.110;2022-08-21T04:22:47;35.92;;;1.85;;
21771;SDS011;11047;47.904;8.110;2022-08-21T04:25:15;21.02;;;1.48;;
21771;SDS011;11047;47.904;8.110;2022-08-21T04:27:43;85.68;;;1.90;;
21771;SDS011;11047;47.904;8.110;2022-08-21T04:30:11;38.38;;;1.63;;
21771;SDS011;11047;47.904;8.110;2022-08-21T04:32:41;43.55;;;1.70;;
21771;SDS011;11047;47.904;8.110;2022-08-21T04:35:09;62.47;;;1.92;;
21771;SDS011;11047;47.904;8.110;2022-08-21T04:37:37;28.70;;;1.70;;
21771;SDS011;11047;47.904;8.110;2022-08-21T04:40:04;21.30;;;1.40;;
21771;SDS011;11047;47.904;8.110;2022-08-21T04:42:40;7.55;;;1.25;;
21771;SDS011;11047;47.904;8.110;2022-08-21T04:45:14;5.45;;;1.17;;
21771;SDS011;11047;47.904;8.110;2022-08-21T04:47:46;2.85;;;1.05;;
21771;SDS011;11047;47.904;8.110;2022-08-21T04:50:14;3.25;;;0.95;;
21771;SDS011;11047;47.904;8.110;2022-08-21T04:52:41;1.25;;;0.90;;
21771;SDS011;11047;47.904;8.110;2022-08-21T04:55:09;1.00;;;1.00;;
21771;SDS011;11047;47.904;8.110;2022-08-21T04:57:37;0.85;;;0.85;;
21771;SDS011;11047;47.904;8.110;2022-08-21T05:00:06;0.80;;;0.80;;
21771;SDS011;11047;47.904;8.110;2022-08-21T05:02:36;2.50;;;1.08;;
21771;SDS011;11047;47.904;8.110;2022-08-21T05:05:06;1.00;;;1.00;;
21771;SDS011;11047;47.904;8.110;2022-08-21T05:07:33;1.05;;;0.95;;
21771;SDS011;11047;47.904;8.110;2022-08-21T05:10:01;1.13;;;1.08;;
21771;SDS011;11047;47.904;8.110;2022-08-21T05:12:30;0.70;;;0.70;;
21771;SDS011;11047;47.904;8.110;2022-08-21T05:14:58;2.08;;;0.90;;
21771;SDS011;11047;47.904;8.110;2022-08-21T05:17:25;9.10;;;1.13;;
21771;SDS011;11047;47.904;8.110;2022-08-21T05:19:52;9.02;;;1.23;;
21771;SDS011;11047;47.904;8.110;2022-08-21T05:22:21;24.05;;;1.60;;
21771;SDS011;11047;47.904;8.110;2022-08-21T05:24:49;12.48;;;1.45;;
21771;SDS011;11047;47.904;8.110;2022-08-21T05:27:17;5.45;;;0.98;;
21771;SDS011;11047;47.904;8.110;2022-08-21T05:29:44;26.92;;;1.40;;
21771;SDS011;11047;47.904;8.110;2022-08-21T05:32:11;43.80;;;2.05;;
21771;SDS011;11047;47.904;8.110;2022-08-21T05:34:38;68.53;;;2.15;;
21771;SDS011;11047;47.904;8.110;2022-08-21T05:37:05;10.18;;;1.45;;
21771;SDS011;11047;47.904;8.110;2022-08-21T05:39:34;2.13;;;1.50;;
21771;SDS011;11047;47.904;8.110;2022-08-21T05:42:01;3.45;;;1.10;;
21771;SDS011;11047;47.904;8.110;2022-08-21T05:44:27;1.17;;;1.08;;
21771;SDS011;11047;47.904;8.110;2022-08-21T05:46:55;1.40;;;1.20;;
21771;SDS011;11047;47.904;8.110;2022-08-21T05:49:27;1.48;;;1.38;;
21771;SDS011;11047;47.904;8.110;2022-08-21T05:51:54;1.17;;;1.08;;
21771;SDS011;11047;47.904;8.110;2022-08-21T05:54:21;1.23;;;1.10;;
21771;SDS011;11047;47.904;8.110;2022-08-21T05:56:49;1.00;;;1.00;;
21771;SDS011;11047;47.904;8.110;2022-08-21T05:59:16;1.10;;;1.00;;
21771;SDS011;11047;47.904;8.110;2022-08-21T06:01:43;1.80;;;1.38;;
21771;SDS011;11047;47.904;8.110;2022-08-21T06:04:11;2.03;;;1.45;;
21771;SDS011;11047;47.904;8.110;2022-08-21T06:06:38;1.65;;;1.55;;
21771;SDS011;11047;47.904;8.110;2022-08-21T06:09:05;1.33;;;1.23;;
21771;SDS011;11047;47.904;8.110;2022-08-21T06:11:32;2.25;;;1.67;;
21771;SDS011;11047;47.904;8.110;2022-08-21T06:14:01;1.50;;;1.40;;
21771;SDS011;11047;47.904;8.110;2022-08-21T06:16:29;1.02;;;1.02;;
21771;SDS011;11047;47.904;8.110;2022-08-21T06:18:56;2.88;;;1.40;;
21771;SDS011;11047;47.904;8.110;2022-08-21T06:21:23;2.47;;;1.23;;
21771;SDS011;11047;47.904;8.110;2022-08-21T06:23:49;2.25;;;1.30;;
21771;SDS011;11047;47.904;8.110;2022-08-21T06:26:16;1.58;;;1.48;;
21771;SDS011;11047;47.904;8.110;2022-08-21T06:28:43;7.05;;;1.70;;
21771;SDS011;11047;47.904;8.110;2022-08-21T06:31:13;1.83;;;1.55;;
21771;SDS011;11047;47.904;8.110;2022-08-21T06:33:41;1.98;;;1.75;;
21771;SDS011;11047;47.904;8.110;2022-08-21T06:36:08;2.80;;;1.80;;
21771;SDS011;11047;47.904;8.110;2022-08-21T06:38:35;3.75;;;1.88;;
21771;SDS011;11047;47.904;8.110;2022-08-21T06:41:03;2.65;;;1.98;;
21771;SDS011;11047;47.904;8.110;2022-08-21T06:43:30;1.85;;;1.75;;
21771;SDS011;11047;47.904;8.110;2022-08-21T06:45:57;2.75;;;1.90;;
21771;SDS011;11047;47.904;8.110;2022-08-21T06:48:25;3.03;;;2.00;;
21771;SDS011;11047;47.904;8.110;2022-08-21T06:50:52;3.22;;;2.20;;
21771;SDS011;11047;47.904;8.110;2022-08-21T06:53:21;5.72;;;1.90;;
21771;SDS011;11047;47.904;8.110;2022-08-21T06:55:47;5.80;;;2.65;;
21771;SDS011;11047;47.904;8.110;2022-08-21T06:58:14;5.93;;;2.10;;
21771;SDS011;11047;47.904;8.110;2022-08-21T07:00:44;2.50;;;2.30;;
21771;SDS011;11047;47.904;8.110;2022-08-21T07:03:16;2.20;;;2.00;;
21771;SDS011;11047;47.904;8.110;2022-08-21T07:05:46;2.72;;;2.08;;
21771;SDS011;11047;47.904;8.110;2022-08-21T07:08:13;2.17;;;1.75;;
21771;SDS011;11047;47.904;8.110;2022-08-21T07:10:40;2.70;;;1.85;;
21771;SDS011;11047;47.904;8.110;2022-08-21T07:13:07;2.20;;;1.60;;
21771;SDS011;11047;47.904;8.110;2022-08-21T07:15:34;5.75;;;1.85;;
21771;SDS011;11047;47.904;8.110;2022-08-21T07:18:01;1.52;;;1.33;;
21771;SDS011;11047;47.904;8.110;2022-08-21T07:20:29;3.38;;;1.00;;
21771;SDS011;11047;47.904;8.110;2022-08-21T07:22:58;2.45;;;1.20;;
21771;SDS011;11047;47.904;8.110;2022-08-21T07:25:27;3.38;;;1.00;;
21771;SDS011;11047;47.904;8.110;2022-08-21T07:27:54;2.40;;;1.15;;
21771;SDS011;11047;47.904;8.110;2022-08-21T07:30:22;1.42;;;1.00;;
21771;SDS011;11047;47.904;8.110;2022-08-21T07:32:49;1.92;;;1.10;;
21771;SDS011;11047;47.904;8.110;2022-08-21T07:35:17;2.38;;;1.13;;
21771;SDS011;11047;47.904;8.110;2022-08-21T07:37:45;2.28;;;1.10;;
21771;SDS011;11047;47.904;8.110;2022-08-21T07:40:13;2.67;;;1.20;;
21771;SDS011;11047;47.904;8.110;2022-08-21T07:42:42;5.13;;;1.13;;
21771;SDS011;11047;47.904;8.110;2022-08-21T07:45:10;2.55;;;1.50;;
21771;SDS011;11047;47.904;8.110;2022-08-21T07:47:38;2.38;;;1.23;;
21771;SDS011;11047;47.904;8.110;2022-08-21T07:50:05;3.95;;;1.50;;
21771;SDS011;11047;47.904;8.110;2022-08-21T07:52:33;2.92;;;1.50;;
21771;SDS011;11047;47.904;8.110;2022-08-21T07:55:00;2.80;;;1.40;;
21771;SDS011;11047;47.904;8.110;2022-08-21T07:57:28;4.72;;;1.70;;
21771;SDS011;11047;47.904;8.110;2022-08-21T07:59:55;3.38;;;1.70;;
21771;SDS011;11047;47.904;8.110;2022-08-21T08:02:25;5.28;;;1.70;;
21771;SDS011;11047;47.904;8.110;2022-08-21T08:04:53;3.53;;;1.75;;
21771;SDS011;11047;47.904;8.110;2022-08-21T08:07:24;5.03;;;1.83;;
21771;SDS011;11047;47.904;8.110;2022-08-21T08:09:51;4.90;;;1.40;;
21771;SDS011;11047;47.904;8.110;2022-08-21T08:12:18;4.05;;;2.03;;
21771;SDS011;11047;47.904;8.110;2022-08-21T08:14:46;3.97;;;1.60;;
21771;SDS011;11047;47.904;8.110;2022-08-21T08:17:14;7.82;;;2.03;;
21771;SDS011;11047;47.904;8.110;2022-08-21T08:19:41;4.82;;;1.70;;
21771;SDS011;11047;47.904;8.110;2022-08-21T08:22:14;3.92;;;1.58;;
21771;SDS011;11047;47.904;8.110;2022-08-21T08:24:44;5.20;;;1.65;;
21771;SDS011;11047;47.904;8.110;2022-08-21T08:27:11;2.65;;;1.67;;
21771;SDS011;11047;47.904;8.110;2022-08-21T08:29:38;4.57;;;1.70;;
21771;SDS011;11047;47.904;8.110;2022-08-21T08:32:07;6.53;;;1.85;;
21771;SDS011;11047;47.904;8.110;2022-08-21T08:34:34;3.88;;;1.67;;
21771;SDS011;11047;47.904;8.110;2022-08-21T08:37:01;4.78;;;1.70;;
21771;SDS011;11047;47.904;8.110;2022-08-21T08:39:29;2.85;;;1.40;;
21771;SDS011;11047;47.904;8.110;2022-08-21T08:41:58;5.65;;;1.42;;
21771;SDS011;11047;47.904;8.110;2022-08-21T08:46:57;2.38;;;1.15;;
21771;SDS011;11047;47.904;8.110;2022-08-21T08:49:29;3.17;;;1.30;;
21771;SDS011;11047;47.904;8.110;2022-08-21T08:52:01;1.85;;;1.05;;
21771;SDS011;11047;47.904;8.110;2022-08-21T08:54:32;2.38;;;1.27;;
21771;SDS011;11047;47.904;8.110;2022-08-21T08:57:03;2.42;;;1.30;;
21771;SDS011;11047;47.904;8.110;2022-08-21T08:59:37;5.18;;;1.40;;
21771;SDS011;11047;47.904;8.110;2022-08-21T09:02:06;2.10;;;1.05;;
21771;SDS011;11047;47.904;8.110;2022-08-21T09:04:37;2.72;;;1.50;;
21771;SDS011;11047;47.904;8.110;2022-08-21T09:07:07;3.33;;;1.20;;
21771;SDS011;11047;47.904;8.110;2022-08-21T09:09:46;3.20;;;1.35;;
21771;SDS011;11047;47.904;8.110;2022-08-21T09:12:25;4.80;;;1.63;;
21771;SDS011;11047;47.904;8.110;2022-08-21T09:15:04;4.43;;;1.30;;
21771;SDS011;11047;47.904;8.110;2022-08-21T09:17:40;5.55;;;1.35;;
21771;SDS011;11047;47.904;8.110;2022-08-21T09:20:29;5.03;;;1.50;;
21771;SDS011;11047;47.904;8.110;2022-08-21T09:23:05;3.47;;;1.40;;
21771;SDS011;11047;47.904;8.110;2022-08-21T09:25:41;3.20;;;1.50;;
21771;SDS011;11047;47.904;8.110;2022-08-21T09:28:12;4.93;;;1.63;;
21771;SDS011;11047;47.904;8.110;2022-08-21T09:30:40;5.28;;;1.67;;
21771;SDS011;11047;47.904;8.110;2022-08-21T09:33:07;3.05;;;1.35;;
21771;SDS011;11047;47.904;8.110;2022-08-21T09:35:47;3.88;;;1.40;;
21771;SDS011;11047;47.904;8.110;2022-08-21T09:38:23;5.07;;;1.80;;
21771;SDS011;11047;47.904;8.110;2022-08-21T09:40:56;4.50;;;1.60;;
21771;SDS011;11047;47.904;8.110;2022-08-21T09:43:25;7.55;;;1.88;;
21771;SDS011;11047;47.904;8.110;2022-08-21T09:46:01;4.85;;;1.55;;
21771;SDS011;11047;47.904;8.110;2022-08-21T09:48:37;5.07;;;1.60;;
21771;SDS011;11047;47.904;8.110;2022-08-21T09:51:09;4.05;;;1.40;;
21771;SDS011;11047;47.904;8.110;2022-08-21T09:53:38;4.07;;;1.50;;
21771;SDS011;11047;47.904;8.110;2022-08-21T09:56:16;4.68;;;1.30;;
21771;SDS011;11047;47.904;8.110;2022-08-21T09:59:13;4.60;;;1.75;;
21771;SDS011;11047;47.904;8.110;2022-08-21T10:01:42;6.15;;;1.65;;
21771;SDS011;11047;47.904;8.110;2022-08-21T10:04:10;3.78;;;1.30;;
21771;SDS011;11047;47.904;8.110;2022-08-21T10:06:39;3.95;;;1.52;;
21771;SDS011;11047;47.904;8.110;2022-08-21T10:09:08;4.75;;;1.30;;
21771;SDS011;11047;47.904;8.110;2022-08-21T10:11:36;4.20;;;1.70;;
21771;SDS011;11047;47.904;8.110;2022-08-21T10:14:07;4.90;;;1.70;;
21771;SDS011;11047;47.904;8.110;2022-08-21T10:16:46;3.55;;;1.60;;
21771;SDS011;11047;47.904;8.110;2022-08-21T10:19:24;2.15;;;1.48;;
21771;SDS011;11047;47.904;8.110;2022-08-21T10:22:00;4.90;;;1.35;;
21771;SDS011;11047;47.904;8.110;2022-08-21T10:24:33;1.55;;;1.27;;
21771;SDS011;11047;47.904;8.110;2022-08-21T10:27:12;3.45;;;1.50;;
21771;SDS011;11047;47.904;8.110;2022-08-21T10:29:47;3.58;;;1.45;;
21771;SDS011;11047;47.904;8.110;2022-08-21T10:32:25;2.95;;;1.10;;
21771;SDS011;11047;47.904;8.110;2022-08-21T10:35:02;2.35;;;1.25;;
21771;SDS011;11047;47.904;8.110;2022-08-21T10:37:40;3.40;;;1.60;;
21771;SDS011;11047;47.904;8.110;2022-08-21T10:40:16;3.33;;;1.58;;
21771;SDS011;11047;47.904;8.110;2022-08-21T10:42:53;7.70;;;1.30;;
21771;SDS011;11047;47.904;8.110;2022-08-21T10:45:35;5.00;;;1.60;;
21771;SDS011;11047;47.904;8.110;2022-08-21T10:48:22;3.67;;;1.42;;
21771;SDS011;11047;47.904;8.110;2022-08-21T10:50:54;2.45;;;1.55;;
21771;SDS011;11047;47.904;8.110;2022-08-21T10:53:35;6.60;;;1.35;;
21771;SDS011;11047;47.904;8.110;2022-08-21T10:56:13;4.47;;;1.60;;
21771;SDS011;11047;47.904;8.110;2022-08-21T10:58:46;4.07;;;1.75;;
21771;SDS011;11047;47.904;8.110;2022-08-21T11:01:41;3.75;;;1.63;;
21771;SDS011;11047;47.904;8.110;2022-08-21T11:04:16;4.85;;;1.40;;
21771;SDS011;11047;47.904;8.110;2022-08-21T11:06:46;3.00;;;1.48;;
21771;SDS011;11047;47.904;8.110;2022-08-21T11:09:20;4.03;;;1.30;;
21771;SDS011;11047;47.904;8.110;2022-08-21T11:11:52;5.20;;;1.50;;
21771;SDS011;11047;47.904;8.110;2022-08-21T11:14:24;4.10;;;1.48;;
21771;SDS011;11047;47.904;8.110;2022-08-21T11:17:00;3.40;;;1.65;;
21771;SDS011;11047;47.904;8.110;2022-08-21T11:19:34;3.30;;;1.60;;
21771;SDS011;11047;47.904;8.110;2022-08-21T11:22:07;6.53;;;1.52;;
21771;SDS011;11047;47.904;8.110;2022-08-21T11:24:42;3.13;;;1.75;;
21771;SDS011;11047;47.904;8.110;2022-08-21T11:27:17;7.65;;;1.63;;
21771;SDS011;11047;47.904;8.110;2022-08-21T11:29:50;3.20;;;1.42;;
21771;SDS011;11047;47.904;8.110;2022-08-21T11:32:24;4.43;;;1.70;;
21771;SDS011;11047;47.904;8.110;2022-08-21T11:37:48;4.25;;;1.35;;
21771;SDS011;11047;47.904;8.110;2022-08-21T11:40:31;2.85;;;1.38;;
21771;SDS011;11047;47.904;8.110;2022-08-21T11:43:08;4.55;;;1.80;;
21771;SDS011;11047;47.904;8.110;2022-08-21T11:45:43;4.57;;;1.42;;
21771;SDS011;11047;47.904;8.110;2022-08-21T11:48:16;2.95;;;1.38;;
21771;SDS011;11047;47.904;8.110;2022-08-21T11:50:57;2.25;;;1.13;;
21771;SDS011;11047;47.904;8.110;2022-08-21T11:53:29;3.05;;;1.45;;
21771;SDS011;11047;47.904;8.110;2022-08-21T11:56:05;2.60;;;1.08;;
21771;SDS011;11047;47.904;8.110;2022-08-21T11:58:36;5.43;;;1.83;;
21771;SDS011;11047;47.904;8.110;2022-08-21T12:01:07;4.13;;;1.70;;
21771;SDS011;11047;47.904;8.110;2022-08-21T12:03:38;3.55;;;1.60;;
21771;SDS011;11047;47.904;8.110;2022-08-21T12:06:08;3.80;;;1.80;;
21771;SDS011;11047;47.904;8.110;2022-08-21T12:08:37;2.85;;;1.60;;
21771;SDS011;11047;47.904;8.110;2022-08-21T12:11:07;3.72;;;1.90;;
21771;SDS011;11047;47.904;8.110;2022-08-21T12:13:36;3.03;;;1.50;;
21771;SDS011;11047;47.904;8.110;2022-08-21T12:16:05;5.25;;;1.30;;
21771;SDS011;11047;47.904;8.110;2022-08-21T12:18:34;2.30;;;1.40;;
21771;SDS011;11047;47.904;8.110;2022-08-21T12:21:05;2.38;;;1.85;;
21771;SDS011;11047;47.904;8.110;2022-08-21T12:23:45;6.28;;;1.92;;
21771;SDS011;11047;47.904;8.110;2022-08-21T12:26:20;10.63;;;2.05;;
21771;SDS011;11047;47.904;8.110;2022-08-21T12:28:51;4.03;;;1.70;;
21771;SDS011;11047;47.904;8.110;2022-08-21T12:31:54;3.13;;;1.60;;
21771;SDS011;11047;47.904;8.110;2022-08-21T12:34:24;5.93;;;1.90;;
21771;SDS011;11047;47.904;8.110;2022-08-21T12:36:59;6.63;;;1.83;;
21771;SDS011;11047;47.904;8.110;2022-08-21T12:39:31;2.90;;;1.65;;
21771;SDS011;11047;47.904;8.110;2022-08-21T12:42:03;4.18;;;1.70;;
21771;SDS011;11047;47.904;8.110;2022-08-21T12:44:35;3.47;;;1.52;;
21771;SDS011;11047;47.904;8.110;2022-08-21T12:47:11;4.28;;;1.85;;
21771;SDS011;11047;47.904;8.110;2022-08-21T12:49:43;4.85;;;1.67;;
21771;SDS011;11047;47.904;8.110;2022-08-21T12:52:19;2.67;;;1.60;;
21771;SDS011;11047;47.904;8.110;2022-08-21T12:54:50;5.25;;;1.70;;
21771;SDS011;11047;47.904;8.110;2022-08-21T12:57:19;44.70;;;2.70;;
21771;SDS011;11047;47.904;8.110;2022-08-21T12:59:53;2.55;;;1.50;;
21771;SDS011;11047;47.904;8.110;2022-08-21T13:02:22;6.18;;;1.65;;
21771;SDS011;11047;47.904;8.110;2022-08-21T13:04:52;4.47;;;1.55;;
21771;SDS011;11047;47.904;8.110;2022-08-21T13:07:25;3.10;;;1.65;;
21771;SDS011;11047;47.904;8.110;2022-08-21T13:09:57;2.65;;;1.48;;
21771;SDS011;11047;47.904;8.110;2022-08-21T13:12:32;4.53;;;2.42;;
21771;SDS011;11047;47.904;8.110;2022-08-21T13:15:01;5.68;;;1.50;;
21771;SDS011;11047;47.904;8.110;2022-08-21T13:17:34;2.50;;;1.63;;
21771;SDS011;11047;47.904;8.110;2022-08-21T13:20:06;5.38;;;1.65;;
21771;SDS011;11047;47.904;8.110;2022-08-21T13:22:40;4.32;;;1.63;;
21771;SDS011;11047;47.904;8.110;2022-08-21T13:25:09;5.40;;;1.95;;
21771;SDS011;11047;47.904;8.110;2022-08-21T13:27:39;2.63;;;1.50;;
21771;SDS011;11047;47.904;8.110;2022-08-21T13:30:09;5.75;;;1.50;;
21771;SDS011;11047;47.904;8.110;2022-08-21T13:32:40;2.83;;;1.73;;
21771;SDS011;11047;47.904;8.110;2022-08-21T13:35:10;3.05;;;1.80;;
21771;SDS011;11047;47.904;8.110;2022-08-21T13:37:41;5.57;;;1.70;;
21771;SDS011;11047;47.904;8.110;2022-08-21T13:40:10;1.70;;;1.40;;
21771;SDS011;11047;47.904;8.110;2022-08-21T13:42:43;3.08;;;1.60;;
21771;SDS011;11047;47.904;8.110;2022-08-21T13:45:18;4.30;;;1.67;;
21771;SDS011;11047;47.904;8.110;2022-08-21T13:47:49;4.38;;;1.58;;
21771;SDS011;11047;47.904;8.110;2022-08-21T13:50:18;2.63;;;1.40;;
21771;SDS011;11047;47.904;8.110;2022-08-21T13:52:54;4.82;;;1.67;;
21771;SDS011;11047;47.904;8.110;2022-08-21T13:55:25;3.08;;;1.50;;
21771;SDS011;11047;47.904;8.110;2022-08-21T13:58:03;3.72;;;1.40;;
21771;SDS011;11047;47.904;8.110;2022-08-21T14:00:34;3.50;;;1.63;;
21771;SDS011;11047;47.904;8.110;2022-08-21T14:03:10;5.43;;;1.60;;
21771;SDS011;11047;47.904;8.110;2022-08-21T14:05:43;4.20;;;1.73;;
21771;SDS011;11047;47.904;8.110;2022-08-21T14:08:12;3.38;;;1.60;;
21771;SDS011;11047;47.904;8.110;2022-08-21T14:10:42;6.03;;;1.70;;
21771;SDS011;11047;47.904;8.110;2022-08-21T14:13:23;2.58;;;1.83;;
21771;SDS011;11047;47.904;8.110;2022-08-21T14:16:02;2.70;;;1.48;;
21771;SDS011;11047;47.904;8.110;2022-08-21T14:18:42;2.60;;;1.50;;
21771;SDS011;11047;47.904;8.110;2022-08-21T14:21:11;2.58;;;1.60;;
21771;SDS011;11047;47.904;8.110;2022-08-21T14:23:38;2.95;;;1.48;;
21771;SDS011;11047;47.904;8.110;2022-08-21T14:26:06;3.60;;;1.50;;
21771;SDS011;11047;47.904;8.110;2022-08-21T14:28:37;3.03;;;1.40;;
21771;SDS011;11047;47.904;8.110;2022-08-21T14:31:13;3.92;;;1.52;;
21771;SDS011;11047;47.904;8.110;2022-08-21T14:33:43;6.18;;;1.73;;
21771;SDS011;11047;47.904;8.110;2022-08-21T14:36:10;2.75;;;1.30;;
21771;SDS011;11047;47.904;8.110;2022-08-21T14:38:39;3.55;;;2.00;;
21771;SDS011;11047;47.904;8.110;2022-08-21T14:41:09;3.30;;;1.48;;
21771;SDS011;11047;47.904;8.110;2022-08-21T14:43:43;4.50;;;1.60;;
21771;SDS011;11047;47.904;8.110;2022-08-21T14:46:12;3.63;;;1.38;;
21771;SDS011;11047;47.904;8.110;2022-08-21T14:48:44;5.75;;;2.20;;
21771;SDS011;11047;47.904;8.110;2022-08-21T14:51:11;3.90;;;1.42;;
21771;SDS011;11047;47.904;8.110;2022-08-21T14:53:39;3.70;;;1.60;;
21771;SDS011;11047;47.904;8.110;2022-08-21T14:56:06;3.90;;;1.67;;
21771;SDS011;11047;47.904;8.110;2022-08-21T14:58:34;9.50;;;1.98;;
21771;SDS011;11047;47.904;8.110;2022-08-21T15:01:06;2.78;;;1.45;;
21771;SDS011;11047;47.904;8.110;2022-08-21T15:03:34;3.28;;;1.55;;
21771;SDS011;11047;47.904;8.110;2022-08-21T15:06:03;3.80;;;1.60;;
21771;SDS011;11047;47.904;8.110;2022-08-21T15:08:31;2.75;;;1.70;;